sensor_id;sensor_type;location;lat;lon;timestamp;P1;durP1;ratioP1;P2;durP2;ratioP2
76196;SDS011;64974;53.144;17.962;2023-02-28T00:00:19;28.77;;;9.85;;
76196;SDS011;64974;53.144;17.962;2023-02-28T00:02:45;46.58;;;15.15;;
76196;SDS011;64974;53.144;17.962;2023-02-28T00:05:12;65.40;;;19.88;;
76196;SDS011;64974;53.144;17.962;2023-02-28T00:07:39;67.47;;;20.15;;
76196;SDS011;64974;53.144;17.962;2023-02-28T00:10:05;39.30;;;13.80;;
76196;SDS011;64974;53.144;17.962;2023-02-28T00:12:32;44.13;;;13.55;;
76196;SDS011;64974;53.144;17.962;2023-02-28T00:14:58;50.15;;;15.25;;
76196;SDS011;64974;53.144;17.962;2023-02-28T00:17:23;46.57;;;14.63;;
76196;SDS011;64974;53.144;17.962;2023-02-28T00:19:48;48.77;;;15.23;;
76196;SDS011;64974;53.144;17.962;2023-02-28T00:22:15;39.78;;;12.25;;
76196;SDS011;64974;53.144;17.962;2023-02-28T00:24:44;35.33;;;12.27;;
76196;SDS011;64974;53.144;17.962;2023-02-28T00:27:10;54.22;;;18.85;;
76196;SDS011;64974;53.144;17.962;2023-02-28T00:29:36;45.10;;;15.45;;
76196;SDS011;64974;53.144;17.962;2023-02-28T00:32:01;37.10;;;11.90;;
76196;SDS011;64974;53.144;17.962;2023-02-28T00:34:27;33.13;;;11.15;;
76196;SDS011;64974;53.144;17.962;2023-02-28T00:36:52;32.95;;;11.48;;
76196;SDS011;64974;53.144;17.962;2023-02-28T00:39:18;30.92;;;11.10;;
76196;SDS011;64974;53.144;17.962;2023-02-28T00:41:43;31.67;;;10.98;;
76196;SDS011;64974;53.144;17.962;2023-02-28T00:44:08;38.33;;;12.45;;
76196;SDS011;64974;53.144;17.962;2023-02-28T00:46:34;29.25;;;10.27;;
76196;SDS011;64974;53.144;17.962;2023-02-28T00:48:59;25.50;;;9.07;;
76196;SDS011;64974;53.144;17.962;2023-02-28T00:51:24;26.50;;;9.57;;
76196;SDS011;64974;53.144;17.962;2023-02-28T00:53:50;22.50;;;9.43;;
76196;SDS011;64974;53.144;17.962;2023-02-28T00:56:15;25.48;;;7.50;;
76196;SDS011;64974;53.144;17.962;2023-02-28T00:58:40;25.33;;;9.05;;
76196;SDS011;64974;53.144;17.962;2023-02-28T01:01:06;22.10;;;8.30;;
76196;SDS011;64974;53.144;17.962;2023-02-28T01:03:31;27.70;;;9.00;;
76196;SDS011;64974;53.144;17.962;2023-02-28T01:05:56;20.95;;;8.10;;
76196;SDS011;64974;53.144;17.962;2023-02-28T01:08:22;23.13;;;8.50;;
76196;SDS011;64974;53.144;17.962;2023-02-28T01:10:48;20.83;;;7.32;;
76196;SDS011;64974;53.144;17.962;2023-02-28T01:13:13;25.67;;;9.63;;
76196;SDS011;64974;53.144;17.962;2023-02-28T01:15:39;31.30;;;12.13;;
76196;SDS011;64974;53.144;17.962;2023-02-28T01:18:07;30.98;;;10.68;;
76196;SDS011;64974;53.144;17.962;2023-02-28T01:20:32;25.70;;;10.50;;
76196;SDS011;64974;53.144;17.962;2023-02-28T01:22:57;25.50;;;9.80;;
76196;SDS011;64974;53.144;17.962;2023-02-28T01:25:23;23.73;;;9.10;;
76196;SDS011;64974;53.144;17.962;2023-02-28T01:27:48;22.70;;;8.27;;
76196;SDS011;64974;53.144;17.962;2023-02-28T01:30:13;35.28;;;13.38;;
76196;SDS011;64974;53.144;17.962;2023-02-28T01:32:39;36.85;;;13.27;;
76196;SDS011;64974;53.144;17.962;2023-02-28T01:35:04;29.87;;;10.20;;
76196;SDS011;64974;53.144;17.962;2023-02-28T01:37:30;24.23;;;9.75;;
76196;SDS011;64974;53.144;17.962;2023-02-28T01:39:55;45.30;;;16.13;;
76196;SDS011;64974;53.144;17.962;2023-02-28T01:42:21;22.63;;;9.93;;
76196;SDS011;64974;53.144;17.962;2023-02-28T01:45:04;22.85;;;8.20;;
76196;SDS011;64974;53.144;17.962;2023-02-28T01:47:40;21.02;;;7.55;;
76196;SDS011;64974;53.144;17.962;2023-02-28T01:50:09;23.42;;;8.40;;
76196;SDS011;64974;53.144;17.962;2023-02-28T01:52:40;27.02;;;10.90;;
76196;SDS011;64974;53.144;17.962;2023-02-28T01:55:06;23.42;;;9.73;;
76196;SDS011;64974;53.144;17.962;2023-02-28T01:57:34;20.27;;;9.82;;
76196;SDS011;64974;53.144;17.962;2023-02-28T02:00:13;14.93;;;6.45;;
76196;SDS011;64974;53.144;17.962;2023-02-28T02:02:41;15.90;;;6.22;;
76196;SDS011;64974;53.144;17.962;2023-02-28T02:05:08;19.48;;;7.07;;
76196;SDS011;64974;53.144;17.962;2023-02-28T02:07:36;16.45;;;6.15;;
76196;SDS011;64974;53.144;17.962;2023-02-28T02:10:14;14.07;;;6.00;;
76196;SDS011;64974;53.144;17.962;2023-02-28T02:26:49;16.10;;;7.95;;
76196;SDS011;64974;53.144;17.962;2023-02-28T02:35:14;23.45;;;8.75;;
76196;SDS011;64974;53.144;17.962;2023-02-28T02:37:52;16.88;;;7.63;;
76196;SDS011;64974;53.144;17.962;2023-02-28T02:40:32;13.00;;;6.22;;
76196;SDS011;64974;53.144;17.962;2023-02-28T02:43:02;19.25;;;8.68;;
76196;SDS011;64974;53.144;17.962;2023-02-28T02:46:10;18.50;;;7.57;;
76196;SDS011;64974;53.144;17.962;2023-02-28T02:48:40;19.80;;;8.25;;
76196;SDS011;64974;53.144;17.962;2023-02-28T02:51:09;17.70;;;8.23;;
76196;SDS011;64974;53.144;17.962;2023-02-28T02:53:47;25.60;;;10.30;;
76196;SDS011;64974;53.144;17.962;2023-02-28T02:56:15;20.83;;;8.63;;
76196;SDS011;64974;53.144;17.962;2023-02-28T02:58:43;23.55;;;10.95;;
76196;SDS011;64974;53.144;17.962;2023-02-28T03:01:13;18.67;;;8.48;;
76196;SDS011;64974;53.144;17.962;2023-02-28T03:03:41;18.02;;;8.68;;
76196;SDS011;64974;53.144;17.962;2023-02-28T03:06:07;19.35;;;9.40;;
76196;SDS011;64974;53.144;17.962;2023-02-28T03:08:34;20.17;;;9.63;;
76196;SDS011;64974;53.144;17.962;2023-02-28T03:11:02;22.92;;;10.90;;
76196;SDS011;64974;53.144;17.962;2023-02-28T03:18:36;24.58;;;8.95;;
76196;SDS011;64974;53.144;17.962;2023-02-28T03:26:24;19.50;;;7.78;;
76196;SDS011;64974;53.144;17.962;2023-02-28T03:31:39;21.88;;;8.68;;
76196;SDS011;64974;53.144;17.962;2023-02-28T03:37:01;18.73;;;7.55;;
76196;SDS011;64974;53.144;17.962;2023-02-28T03:39:43;18.75;;;7.18;;
76196;SDS011;64974;53.144;17.962;2023-02-28T03:42:12;24.08;;;8.57;;
76196;SDS011;64974;53.144;17.962;2023-02-28T03:44:48;19.65;;;8.52;;
76196;SDS011;64974;53.144;17.962;2023-02-28T03:47:17;21.42;;;8.25;;
76196;SDS011;64974;53.144;17.962;2023-02-28T03:52:32;22.70;;;8.18;;
76196;SDS011;64974;53.144;17.962;2023-02-28T03:55:01;21.15;;;7.93;;
76196;SDS011;64974;53.144;17.962;2023-02-28T03:57:43;23.13;;;7.90;;
76196;SDS011;64974;53.144;17.962;2023-02-28T04:00:34;22.13;;;7.72;;
76196;SDS011;64974;53.144;17.962;2023-02-28T04:03:01;16.02;;;8.10;;
76196;SDS011;64974;53.144;17.962;2023-02-28T04:05:27;20.58;;;7.85;;
76196;SDS011;64974;53.144;17.962;2023-02-28T04:07:53;20.80;;;9.02;;
76196;SDS011;64974;53.144;17.962;2023-02-28T04:10:19;21.23;;;9.05;;
76196;SDS011;64974;53.144;17.962;2023-02-28T04:12:45;21.42;;;9.05;;
76196;SDS011;64974;53.144;17.962;2023-02-28T04:15:10;23.83;;;9.65;;
76196;SDS011;64974;53.144;17.962;2023-02-28T04:17:36;19.02;;;9.27;;
76196;SDS011;64974;53.144;17.962;2023-02-28T04:20:01;25.02;;;9.13;;
76196;SDS011;64974;53.144;17.962;2023-02-28T04:22:28;26.77;;;8.50;;
76196;SDS011;64974;53.144;17.962;2023-02-28T04:24:53;18.80;;;9.07;;
76196;SDS011;64974;53.144;17.962;2023-02-28T04:27:19;25.35;;;9.48;;
76196;SDS011;64974;53.144;17.962;2023-02-28T04:29:45;20.35;;;9.00;;
76196;SDS011;64974;53.144;17.962;2023-02-28T04:32:11;28.00;;;9.73;;
76196;SDS011;64974;53.144;17.962;2023-02-28T04:34:36;22.17;;;8.93;;
76196;SDS011;64974;53.144;17.962;2023-02-28T04:37:02;25.42;;;10.45;;
76196;SDS011;64974;53.144;17.962;2023-02-28T04:39:28;24.58;;;8.98;;
76196;SDS011;64974;53.144;17.962;2023-02-28T04:41:53;21.83;;;8.95;;
76196;SDS011;64974;53.144;17.962;2023-02-28T04:44:18;24.60;;;8.50;;
76196;SDS011;64974;53.144;17.962;2023-02-28T04:46:45;22.38;;;8.60;;
76196;SDS011;64974;53.144;17.962;2023-02-28T04:49:12;17.83;;;8.75;;
76196;SDS011;64974;53.144;17.962;2023-02-28T04:51:38;21.15;;;9.02;;
76196;SDS011;64974;53.144;17.962;2023-02-28T04:54:03;18.20;;;7.88;;
76196;SDS011;64974;53.144;17.962;2023-02-28T04:56:29;26.45;;;9.25;;
76196;SDS011;64974;53.144;17.962;2023-02-28T04:58:54;21.00;;;9.30;;
76196;SDS011;64974;53.144;17.962;2023-02-28T05:01:24;24.60;;;8.90;;
76196;SDS011;64974;53.144;17.962;2023-02-28T05:03:52;24.08;;;9.30;;
76196;SDS011;64974;53.144;17.962;2023-02-28T05:08:45;27.77;;;8.23;;
76196;SDS011;64974;53.144;17.962;2023-02-28T05:11:15;24.92;;;9.38;;
76196;SDS011;64974;53.144;17.962;2023-02-28T05:13:40;49.63;;;15.57;;
76196;SDS011;64974;53.144;17.962;2023-02-28T05:16:06;48.28;;;16.13;;
76196;SDS011;64974;53.144;17.962;2023-02-28T05:18:31;42.72;;;14.82;;
76196;SDS011;64974;53.144;17.962;2023-02-28T05:20:57;39.20;;;13.57;;
76196;SDS011;64974;53.144;17.962;2023-02-28T05:23:22;37.17;;;13.90;;
76196;SDS011;64974;53.144;17.962;2023-02-28T05:25:47;27.25;;;11.80;;
76196;SDS011;64974;53.144;17.962;2023-02-28T05:28:13;31.73;;;11.10;;
76196;SDS011;64974;53.144;17.962;2023-02-28T05:30:39;32.25;;;13.10;;
76196;SDS011;64974;53.144;17.962;2023-02-28T05:33:04;43.42;;;13.85;;
76196;SDS011;64974;53.144;17.962;2023-02-28T05:35:29;46.07;;;16.63;;
76196;SDS011;64974;53.144;17.962;2023-02-28T05:37:55;46.27;;;15.17;;
76196;SDS011;64974;53.144;17.962;2023-02-28T05:40:20;38.47;;;14.82;;
76196;SDS011;64974;53.144;17.962;2023-02-28T05:42:46;39.47;;;14.17;;
76196;SDS011;64974;53.144;17.962;2023-02-28T05:45:11;47.20;;;16.83;;
76196;SDS011;64974;53.144;17.962;2023-02-28T05:47:37;59.20;;;23.25;;
76196;SDS011;64974;53.144;17.962;2023-02-28T05:50:03;43.25;;;15.00;;
76196;SDS011;64974;53.144;17.962;2023-02-28T05:52:29;28.38;;;11.30;;
76196;SDS011;64974;53.144;17.962;2023-02-28T05:54:55;30.30;;;11.82;;
76196;SDS011;64974;53.144;17.962;2023-02-28T05:57:20;45.22;;;13.75;;
76196;SDS011;64974;53.144;17.962;2023-02-28T05:59:46;41.33;;;15.77;;
76196;SDS011;64974;53.144;17.962;2023-02-28T06:02:12;45.73;;;14.60;;
76196;SDS011;64974;53.144;17.962;2023-02-28T06:04:38;42.88;;;14.95;;
76196;SDS011;64974;53.144;17.962;2023-02-28T06:07:05;41.55;;;16.35;;
76196;SDS011;64974;53.144;17.962;2023-02-28T06:09:31;55.17;;;19.50;;
76196;SDS011;64974;53.144;17.962;2023-02-28T06:12:00;50.00;;;16.73;;
76196;SDS011;64974;53.144;17.962;2023-02-28T06:14:27;46.72;;;16.95;;
76196;SDS011;64974;53.144;17.962;2023-02-28T06:16:53;46.45;;;16.13;;
76196;SDS011;64974;53.144;17.962;2023-02-28T06:19:18;50.23;;;17.40;;
76196;SDS011;64974;53.144;17.962;2023-02-28T06:21:43;45.67;;;18.55;;
76196;SDS011;64974;53.144;17.962;2023-02-28T06:24:09;45.50;;;17.73;;
76196;SDS011;64974;53.144;17.962;2023-02-28T06:26:34;45.53;;;19.50;;
76196;SDS011;64974;53.144;17.962;2023-02-28T06:29:00;47.38;;;20.10;;
76196;SDS011;64974;53.144;17.962;2023-02-28T06:31:25;60.08;;;24.38;;
76196;SDS011;64974;53.144;17.962;2023-02-28T06:33:51;53.85;;;23.83;;
76196;SDS011;64974;53.144;17.962;2023-02-28T06:36:17;45.15;;;18.75;;
76196;SDS011;64974;53.144;17.962;2023-02-28T06:38:42;42.72;;;15.60;;
76196;SDS011;64974;53.144;17.962;2023-02-28T06:41:08;37.05;;;14.57;;
76196;SDS011;64974;53.144;17.962;2023-02-28T06:43:35;33.88;;;13.63;;
76196;SDS011;64974;53.144;17.962;2023-02-28T06:46:03;30.08;;;12.50;;
76196;SDS011;64974;53.144;17.962;2023-02-28T06:48:29;25.67;;;9.07;;
76196;SDS011;64974;53.144;17.962;2023-02-28T06:51:08;35.65;;;10.57;;
76196;SDS011;64974;53.144;17.962;2023-02-28T06:58:28;47.03;;;15.45;;
76196;SDS011;64974;53.144;17.962;2023-02-28T07:00:54;60.93;;;20.10;;
76196;SDS011;64974;53.144;17.962;2023-02-28T07:03:19;62.85;;;18.75;;
76196;SDS011;64974;53.144;17.962;2023-02-28T07:05:45;56.97;;;20.58;;
76196;SDS011;64974;53.144;17.962;2023-02-28T07:08:10;47.67;;;17.90;;
76196;SDS011;64974;53.144;17.962;2023-02-28T07:10:39;52.90;;;18.70;;
76196;SDS011;64974;53.144;17.962;2023-02-28T07:13:05;50.97;;;16.98;;
76196;SDS011;64974;53.144;17.962;2023-02-28T07:15:31;43.63;;;15.43;;
76196;SDS011;64974;53.144;17.962;2023-02-28T07:17:56;43.67;;;15.53;;
76196;SDS011;64974;53.144;17.962;2023-02-28T07:20:22;34.85;;;13.70;;
76196;SDS011;64974;53.144;17.962;2023-02-28T07:22:48;40.70;;;14.70;;
76196;SDS011;64974;53.144;17.962;2023-02-28T07:25:20;40.15;;;15.60;;
76196;SDS011;64974;53.144;17.962;2023-02-28T07:27:46;38.90;;;15.18;;
76196;SDS011;64974;53.144;17.962;2023-02-28T07:30:11;38.37;;;15.27;;
76196;SDS011;64974;53.144;17.962;2023-02-28T07:32:37;34.55;;;14.35;;
76196;SDS011;64974;53.144;17.962;2023-02-28T07:35:02;30.88;;;12.40;;
76196;SDS011;64974;53.144;17.962;2023-02-28T07:37:28;35.88;;;14.95;;
76196;SDS011;64974;53.144;17.962;2023-02-28T07:39:56;50.92;;;18.80;;
76196;SDS011;64974;53.144;17.962;2023-02-28T07:42:22;53.60;;;19.30;;
76196;SDS011;64974;53.144;17.962;2023-02-28T07:44:47;44.80;;;17.42;;
76196;SDS011;64974;53.144;17.962;2023-02-28T07:47:12;38.85;;;17.40;;
76196;SDS011;64974;53.144;17.962;2023-02-28T07:49:38;53.07;;;18.50;;
76196;SDS011;64974;53.144;17.962;2023-02-28T07:52:06;40.35;;;17.08;;
76196;SDS011;64974;53.144;17.962;2023-02-28T07:54:32;40.70;;;16.50;;
76196;SDS011;64974;53.144;17.962;2023-02-28T07:56:58;38.92;;;14.30;;
76196;SDS011;64974;53.144;17.962;2023-02-28T07:59:23;35.50;;;14.48;;
76196;SDS011;64974;53.144;17.962;2023-02-28T08:01:49;39.00;;;16.00;;
76196;SDS011;64974;53.144;17.962;2023-02-28T08:04:15;43.10;;;15.20;;
76196;SDS011;64974;53.144;17.962;2023-02-28T08:06:41;43.72;;;17.38;;
76196;SDS011;64974;53.144;17.962;2023-02-28T08:09:07;33.25;;;14.18;;
76196;SDS011;64974;53.144;17.962;2023-02-28T08:11:32;33.80;;;13.98;;
76196;SDS011;64974;53.144;17.962;2023-02-28T08:13:57;32.45;;;14.65;;
76196;SDS011;64974;53.144;17.962;2023-02-28T08:16:23;36.33;;;14.52;;
76196;SDS011;64974;53.144;17.962;2023-02-28T08:18:49;37.13;;;13.55;;
76196;SDS011;64974;53.144;17.962;2023-02-28T08:21:15;32.33;;;12.70;;
76196;SDS011;64974;53.144;17.962;2023-02-28T08:23:40;32.45;;;11.93;;
76196;SDS011;64974;53.144;17.962;2023-02-28T08:26:06;28.47;;;10.73;;
76196;SDS011;64974;53.144;17.962;2023-02-28T08:28:31;26.88;;;11.70;;
76196;SDS011;64974;53.144;17.962;2023-02-28T08:30:57;28.90;;;10.02;;
76196;SDS011;64974;53.144;17.962;2023-02-28T08:33:23;22.35;;;10.57;;
76196;SDS011;64974;53.144;17.962;2023-02-28T08:35:51;18.75;;;9.45;;
76196;SDS011;64974;53.144;17.962;2023-02-28T08:38:18;22.30;;;9.50;;
76196;SDS011;64974;53.144;17.962;2023-02-28T08:40:43;24.77;;;9.73;;
76196;SDS011;64974;53.144;17.962;2023-02-28T08:43:08;19.53;;;10.53;;
76196;SDS011;64974;53.144;17.962;2023-02-28T08:45:34;25.73;;;10.00;;
76196;SDS011;64974;53.144;17.962;2023-02-28T08:47:59;20.37;;;10.07;;
76196;SDS011;64974;53.144;17.962;2023-02-28T08:50:24;27.80;;;10.67;;
76196;SDS011;64974;53.144;17.962;2023-02-28T08:52:50;24.40;;;9.98;;
76196;SDS011;64974;53.144;17.962;2023-02-28T08:55:15;15.52;;;7.50;;
76196;SDS011;64974;53.144;17.962;2023-02-28T08:57:40;15.85;;;6.32;;
76196;SDS011;64974;53.144;17.962;2023-02-28T09:00:06;15.07;;;6.43;;
76196;SDS011;64974;53.144;17.962;2023-02-28T09:02:32;19.08;;;5.85;;
76196;SDS011;64974;53.144;17.962;2023-02-28T09:04:58;13.32;;;6.05;;
76196;SDS011;64974;53.144;17.962;2023-02-28T09:07:23;13.07;;;5.90;;
76196;SDS011;64974;53.144;17.962;2023-02-28T09:09:49;15.45;;;6.22;;
76196;SDS011;64974;53.144;17.962;2023-02-28T09:12:22;15.65;;;5.97;;
76196;SDS011;64974;53.144;17.962;2023-02-28T09:14:51;12.05;;;5.25;;
76196;SDS011;64974;53.144;17.962;2023-02-28T09:17:16;13.43;;;7.28;;
76196;SDS011;64974;53.144;17.962;2023-02-28T09:19:41;15.98;;;7.18;;
76196;SDS011;64974;53.144;17.962;2023-02-28T09:22:07;9.30;;;5.28;;
76196;SDS011;64974;53.144;17.962;2023-02-28T09:24:33;8.80;;;4.22;;
76196;SDS011;64974;53.144;17.962;2023-02-28T09:26:58;9.07;;;4.00;;
76196;SDS011;64974;53.144;17.962;2023-02-28T09:29:24;6.03;;;3.35;;
76196;SDS011;64974;53.144;17.962;2023-02-28T09:31:49;9.23;;;4.07;;
76196;SDS011;64974;53.144;17.962;2023-02-28T09:34:15;9.70;;;3.90;;
76196;SDS011;64974;53.144;17.962;2023-02-28T09:36:42;7.95;;;3.35;;
76196;SDS011;64974;53.144;17.962;2023-02-28T09:39:07;8.55;;;3.63;;
76196;SDS011;64974;53.144;17.962;2023-02-28T09:41:38;10.00;;;3.63;;
76196;SDS011;64974;53.144;17.962;2023-02-28T09:44:33;13.27;;;4.82;;
76196;SDS011;64974;53.144;17.962;2023-02-28T09:47:10;11.05;;;4.93;;
76196;SDS011;64974;53.144;17.962;2023-02-28T09:49:44;7.80;;;3.25;;
76196;SDS011;64974;53.144;17.962;2023-02-28T09:52:44;11.00;;;5.95;;
76196;SDS011;64974;53.144;17.962;2023-02-28T09:55:20;6.82;;;2.67;;
76196;SDS011;64974;53.144;17.962;2023-02-28T09:57:48;5.32;;;2.20;;
76196;SDS011;64974;53.144;17.962;2023-02-28T10:06:06;19.60;;;13.27;;
76196;SDS011;64974;53.144;17.962;2023-02-28T10:08:39;12.02;;;8.80;;
76196;SDS011;64974;53.144;17.962;2023-02-28T10:11:10;8.23;;;4.15;;
76196;SDS011;64974;53.144;17.962;2023-02-28T10:16:43;6.82;;;3.40;;
76196;SDS011;64974;53.144;17.962;2023-02-28T10:19:22;7.90;;;3.92;;
76196;SDS011;64974;53.144;17.962;2023-02-28T10:21:58;8.93;;;4.68;;
76196;SDS011;64974;53.144;17.962;2023-02-28T10:24:35;8.45;;;3.65;;
76196;SDS011;64974;53.144;17.962;2023-02-28T10:29:42;8.82;;;3.00;;
76196;SDS011;64974;53.144;17.962;2023-02-28T10:32:08;4.78;;;2.13;;
76196;SDS011;64974;53.144;17.962;2023-02-28T10:34:36;4.68;;;1.80;;
76196;SDS011;64974;53.144;17.962;2023-02-28T10:37:01;5.82;;;2.47;;
76196;SDS011;64974;53.144;17.962;2023-02-28T10:39:44;11.70;;;4.07;;
76196;SDS011;64974;53.144;17.962;2023-02-28T10:42:24;10.52;;;5.13;;
76196;SDS011;64974;53.144;17.962;2023-02-28T10:47:41;6.15;;;2.28;;
76196;SDS011;64974;53.144;17.962;2023-02-28T10:50:28;5.63;;;2.70;;
76196;SDS011;64974;53.144;17.962;2023-02-28T10:55:58;8.23;;;3.97;;
76196;SDS011;64974;53.144;17.962;2023-02-28T10:58:25;8.68;;;3.65;;
76196;SDS011;64974;53.144;17.962;2023-02-28T11:00:52;4.72;;;2.10;;
76196;SDS011;64974;53.144;17.962;2023-02-28T11:03:31;13.57;;;4.43;;
76196;SDS011;64974;53.144;17.962;2023-02-28T11:05:58;10.23;;;4.63;;
76196;SDS011;64974;53.144;17.962;2023-02-28T11:08:28;9.23;;;3.95;;
76196;SDS011;64974;53.144;17.962;2023-02-28T11:10:55;11.65;;;3.92;;
76196;SDS011;64974;53.144;17.962;2023-02-28T11:13:24;5.07;;;1.95;;
76196;SDS011;64974;53.144;17.962;2023-02-28T11:15:53;4.50;;;2.40;;
76196;SDS011;64974;53.144;17.962;2023-02-28T11:18:30;6.18;;;2.70;;
76196;SDS011;64974;53.144;17.962;2023-02-28T11:21:02;7.78;;;2.95;;
76196;SDS011;64974;53.144;17.962;2023-02-28T11:23:29;6.32;;;2.38;;
76196;SDS011;64974;53.144;17.962;2023-02-28T11:25:56;4.80;;;2.03;;
76196;SDS011;64974;53.144;17.962;2023-02-28T11:33:30;10.50;;;3.85;;
76196;SDS011;64974;53.144;17.962;2023-02-28T11:35:58;5.57;;;2.25;;
76196;SDS011;64974;53.144;17.962;2023-02-28T11:38:28;6.30;;;2.08;;
76196;SDS011;64974;53.144;17.962;2023-02-28T11:49:07;3.95;;;1.80;;
76196;SDS011;64974;53.144;17.962;2023-02-28T11:57:03;6.03;;;2.25;;
76196;SDS011;64974;53.144;17.962;2023-02-28T12:02:30;3.72;;;2.10;;
76196;SDS011;64974;53.144;17.962;2023-02-28T12:08:04;5.93;;;3.05;;
76196;SDS011;64974;53.144;17.962;2023-02-28T12:11:03;6.50;;;2.95;;
76196;SDS011;64974;53.144;17.962;2023-02-28T12:13:48;9.23;;;3.08;;
76196;SDS011;64974;53.144;17.962;2023-02-28T12:16:21;9.32;;;3.55;;
76196;SDS011;64974;53.144;17.962;2023-02-28T12:18:53;13.35;;;4.32;;
76196;SDS011;64974;53.144;17.962;2023-02-28T12:21:56;8.65;;;3.13;;
76196;SDS011;64974;53.144;17.962;2023-02-28T12:26:48;6.87;;;2.50;;
76196;SDS011;64974;53.144;17.962;2023-02-28T12:29:16;14.27;;;5.90;;
76196;SDS011;64974;53.144;17.962;2023-02-28T12:32:03;7.57;;;3.28;;
76196;SDS011;64974;53.144;17.962;2023-02-28T12:34:33;8.00;;;3.20;;
76196;SDS011;64974;53.144;17.962;2023-02-28T12:37:03;14.05;;;4.80;;
76196;SDS011;64974;53.144;17.962;2023-02-28T12:39:34;9.70;;;3.45;;
76196;SDS011;64974;53.144;17.962;2023-02-28T12:42:07;7.03;;;3.72;;
76196;SDS011;64974;53.144;17.962;2023-02-28T12:44:40;8.15;;;2.83;;
76196;SDS011;64974;53.144;17.962;2023-02-28T12:47:15;7.30;;;2.97;;
76196;SDS011;64974;53.144;17.962;2023-02-28T12:49:58;7.95;;;3.15;;
76196;SDS011;64974;53.144;17.962;2023-02-28T12:52:35;5.03;;;2.53;;
76196;SDS011;64974;53.144;17.962;2023-02-28T13:00:25;9.18;;;3.45;;
76196;SDS011;64974;53.144;17.962;2023-02-28T13:05:38;5.55;;;2.55;;
76196;SDS011;64974;53.144;17.962;2023-02-28T13:08:24;8.73;;;2.70;;
76196;SDS011;64974;53.144;17.962;2023-02-28T13:11:07;7.45;;;3.28;;
76196;SDS011;64974;53.144;17.962;2023-02-28T13:13:48;7.03;;;2.75;;
76196;SDS011;64974;53.144;17.962;2023-02-28T13:16:22;6.43;;;2.35;;
76196;SDS011;64974;53.144;17.962;2023-02-28T13:18:48;7.88;;;2.97;;
76196;SDS011;64974;53.144;17.962;2023-02-28T13:26:22;7.72;;;3.20;;
76196;SDS011;64974;53.144;17.962;2023-02-28T13:31:13;6.83;;;2.63;;
76196;SDS011;64974;53.144;17.962;2023-02-28T13:36:12;6.45;;;2.47;;
76196;SDS011;64974;53.144;17.962;2023-02-28T13:38:55;5.97;;;2.85;;
76196;SDS011;64974;53.144;17.962;2023-02-28T13:44:10;5.93;;;2.13;;
76196;SDS011;64974;53.144;17.962;2023-02-28T13:57:30;5.32;;;3.42;;
76196;SDS011;64974;53.144;17.962;2023-02-28T14:00:16;6.63;;;2.72;;
76196;SDS011;64974;53.144;17.962;2023-02-28T14:05:21;7.10;;;3.87;;
76196;SDS011;64974;53.144;17.962;2023-02-28T14:07:51;10.18;;;4.25;;
76196;SDS011;64974;53.144;17.962;2023-02-28T14:10:36;6.60;;;3.13;;
76196;SDS011;64974;53.144;17.962;2023-02-28T14:16:13;8.18;;;4.47;;
76196;SDS011;64974;53.144;17.962;2023-02-28T14:18:49;11.95;;;4.75;;
76196;SDS011;64974;53.144;17.962;2023-02-28T14:21:21;6.38;;;3.15;;
76196;SDS011;64974;53.144;17.962;2023-02-28T14:24:01;11.60;;;5.38;;
76196;SDS011;64974;53.144;17.962;2023-02-28T14:26:53;12.35;;;6.68;;
76196;SDS011;64974;53.144;17.962;2023-02-28T14:37:05;10.07;;;4.33;;
76196;SDS011;64974;53.144;17.962;2023-02-28T14:39:32;7.70;;;3.40;;
76196;SDS011;64974;53.144;17.962;2023-02-28T14:41:59;7.35;;;3.63;;
76196;SDS011;64974;53.144;17.962;2023-02-28T14:44:29;15.00;;;5.28;;
76196;SDS011;64974;53.144;17.962;2023-02-28T14:46:56;29.33;;;9.43;;
76196;SDS011;64974;53.144;17.962;2023-02-28T14:49:32;22.48;;;8.68;;
76196;SDS011;64974;53.144;17.962;2023-02-28T14:52:05;19.30;;;7.78;;
76196;SDS011;64974;53.144;17.962;2023-02-28T14:54:41;7.35;;;3.25;;
76196;SDS011;64974;53.144;17.962;2023-02-28T14:57:06;6.18;;;3.05;;
76196;SDS011;64974;53.144;17.962;2023-02-28T15:02:34;7.03;;;2.85;;
76196;SDS011;64974;53.144;17.962;2023-02-28T15:05:02;8.23;;;3.33;;
76196;SDS011;64974;53.144;17.962;2023-02-28T15:07:34;6.10;;;3.25;;
76196;SDS011;64974;53.144;17.962;2023-02-28T15:10:33;6.40;;;2.40;;
76196;SDS011;64974;53.144;17.962;2023-02-28T15:12:56;5.65;;;2.53;;
76196;SDS011;64974;53.144;17.962;2023-02-28T15:18:24;9.23;;;3.35;;
76196;SDS011;64974;53.144;17.962;2023-02-28T15:21:12;12.00;;;4.18;;
76196;SDS011;64974;53.144;17.962;2023-02-28T15:23:39;10.30;;;4.15;;
76196;SDS011;64974;53.144;17.962;2023-02-28T15:26:06;15.50;;;6.90;;
76196;SDS011;64974;53.144;17.962;2023-02-28T15:28:31;16.02;;;7.25;;
76196;SDS011;64974;53.144;17.962;2023-02-28T15:31:01;21.17;;;7.18;;
76196;SDS011;64974;53.144;17.962;2023-02-28T15:33:29;20.90;;;9.57;;
76196;SDS011;64974;53.144;17.962;2023-02-28T15:36:05;17.40;;;7.85;;
76196;SDS011;64974;53.144;17.962;2023-02-28T15:38:33;14.52;;;7.80;;
76196;SDS011;64974;53.144;17.962;2023-02-28T15:40:59;21.25;;;8.18;;
76196;SDS011;64974;53.144;17.962;2023-02-28T15:46:11;9.50;;;4.40;;
76196;SDS011;64974;53.144;17.962;2023-02-28T15:48:51;15.70;;;6.80;;
76196;SDS011;64974;53.144;17.962;2023-02-28T15:51:18;19.33;;;8.43;;
76196;SDS011;64974;53.144;17.962;2023-02-28T15:58:53;13.13;;;5.70;;
76196;SDS011;64974;53.144;17.962;2023-02-28T16:01:36;15.10;;;6.65;;
76196;SDS011;64974;53.144;17.962;2023-02-28T16:04:06;17.00;;;8.43;;
76196;SDS011;64974;53.144;17.962;2023-02-28T16:06:45;13.45;;;6.88;;
76196;SDS011;64974;53.144;17.962;2023-02-28T16:11:44;16.60;;;7.32;;
76196;SDS011;64974;53.144;17.962;2023-02-28T16:14:12;23.08;;;10.80;;
76196;SDS011;64974;53.144;17.962;2023-02-28T16:16:45;91.57;;;31.60;;
76196;SDS011;64974;53.144;17.962;2023-02-28T16:19:12;63.53;;;23.23;;
76196;SDS011;64974;53.144;17.962;2023-02-28T16:21:37;35.00;;;13.48;;
76196;SDS011;64974;53.144;17.962;2023-02-28T16:24:02;33.77;;;12.93;;
76196;SDS011;64974;53.144;17.962;2023-02-28T16:26:28;34.88;;;14.93;;
76196;SDS011;64974;53.144;17.962;2023-02-28T16:28:53;37.95;;;16.23;;
76196;SDS011;64974;53.144;17.962;2023-02-28T16:31:19;47.63;;;17.98;;
76196;SDS011;64974;53.144;17.962;2023-02-28T16:33:45;42.67;;;18.05;;
76196;SDS011;64974;53.144;17.962;2023-02-28T16:36:14;47.80;;;19.73;;
76196;SDS011;64974;53.144;17.962;2023-02-28T16:38:44;53.13;;;20.25;;
76196;SDS011;64974;53.144;17.962;2023-02-28T16:41:11;46.67;;;21.67;;
76196;SDS011;64974;53.144;17.962;2023-02-28T16:43:41;87.45;;;34.17;;
76196;SDS011;64974;53.144;17.962;2023-02-28T16:46:07;84.68;;;32.45;;
76196;SDS011;64974;53.144;17.962;2023-02-28T16:48:35;59.15;;;23.55;;
76196;SDS011;64974;53.144;17.962;2023-02-28T16:51:00;101.47;;;36.03;;
76196;SDS011;64974;53.144;17.962;2023-02-28T16:53:29;83.30;;;30.05;;
76196;SDS011;64974;53.144;17.962;2023-02-28T16:55:54;86.13;;;30.27;;
76196;SDS011;64974;53.144;17.962;2023-02-28T16:58:19;95.63;;;36.67;;
76196;SDS011;64974;53.144;17.962;2023-02-28T17:00:46;99.93;;;38.55;;